createdAt,value
2022-11-02T00:01:30.927Z,8.65
2022-11-02T00:04:03.549Z,8.61
2022-11-02T00:06:36.192Z,8.57
2022-11-02T00:09:09.181Z,8.56
2022-11-02T00:11:41.958Z,8.57
2022-11-02T00:14:14.644Z,8.60
2022-11-02T00:16:47.899Z,8.61
2022-11-02T00:19:21.416Z,8.62
2022-11-02T00:21:54.924Z,8.63
2022-11-02T00:24:27.530Z,8.63
2022-11-02T00:26:59.919Z,8.62
2022-11-02T00:29:34.073Z,8.59
2022-11-02T00:32:07.212Z,8.56
2022-11-02T00:34:40.543Z,8.53
2022-11-02T00:37:13.038Z,8.49
2022-11-02T00:39:45.836Z,8.47
2022-11-02T00:42:18.218Z,8.46
2022-11-02T00:44:51.227Z,8.43
2022-11-02T00:47:24.049Z,8.41
2022-11-02T00:49:57.474Z,8.34
2022-11-02T00:52:30.615Z,8.27
2022-11-02T00:55:03.235Z,8.25
2022-11-02T00:57:36.279Z,8.22
2022-11-02T01:00:14.280Z,8.22
2022-11-02T01:02:47.515Z,8.25
2022-11-02T01:05:21.215Z,8.22
2022-11-02T01:07:54.679Z,8.18
2022-11-02T01:10:28.381Z,8.20
2022-11-02T01:13:02.349Z,8.19
2022-11-02T01:15:37.216Z,8.13
2022-11-02T01:18:10.595Z,8.13
2022-11-02T01:20:43.613Z,8.15
2022-11-02T01:23:17.202Z,8.16
2022-11-02T01:25:49.999Z,8.13
2022-11-02T01:28:25.097Z,8.07
2022-11-02T01:30:59.184Z,8.01
2022-11-02T01:33:33.393Z,7.98
2022-11-02T01:36:07.699Z,7.95
2022-11-02T01:38:39.760Z,7.95
2022-11-02T01:41:13.748Z,7.94
2022-11-02T01:43:47.882Z,7.91
2022-11-02T01:46:27.978Z,7.90
2022-11-02T01:49:10.631Z,7.92
2022-11-02T01:52:02.914Z,7.88
2022-11-02T01:54:40.585Z,7.83
2022-11-02T01:57:16.396Z,7.84
2022-11-02T02:00:05.851Z,7.82
2022-11-02T02:02:51.520Z,7.83
2022-11-02T02:05:24.783Z,7.85
2022-11-02T02:07:57.555Z,7.88
2022-11-02T02:10:30.094Z,7.89
2022-11-02T02:13:06.223Z,7.89
2022-11-02T02:16:06.632Z,7.89
2022-11-02T02:18:49.822Z,7.88
2022-11-02T02:21:40.017Z,7.85
2022-11-02T02:24:45.849Z,7.82
2022-11-02T02:27:55.294Z,7.80
2022-11-02T02:30:29.101Z,7.79
2022-11-02T02:33:14.182Z,7.78
2022-11-02T02:36:00.894Z,7.77
2022-11-02T02:38:56.298Z,7.71
2022-11-02T02:41:45.046Z,7.65
2022-11-02T02:44:22.141Z,7.60
2022-11-02T02:46:59.312Z,7.55
2022-11-02T02:49:38.623Z,7.50
2022-11-02T02:52:11.976Z,7.44
2022-11-02T02:54:46.800Z,7.36
2022-11-02T02:57:21.543Z,7.31
2022-11-02T02:59:55.105Z,7.27
2022-11-02T03:02:35.530Z,7.25
2022-11-02T03:05:34.157Z,7.26
2022-11-02T03:08:13.326Z,7.27
2022-11-02T03:11:16.908Z,7.27
2022-11-02T03:14:37.225Z,7.23
2022-11-02T03:17:23.597Z,7.18
2022-11-02T03:20:13.706Z,7.17
2022-11-02T03:23:10.565Z,7.16
2022-11-02T03:25:56.866Z,7.17
2022-11-02T03:28:50.601Z,7.17
2022-11-02T03:31:39.463Z,7.15
2022-11-02T03:34:35.564Z,7.14
2022-11-02T03:37:19.705Z,7.14
2022-11-02T03:39:56.687Z,7.18
2022-11-02T03:42:30.031Z,7.16
2022-11-02T03:45:10.443Z,7.14
2022-11-02T03:47:44.568Z,7.13
2022-11-02T03:50:20.615Z,7.10
2022-11-02T03:53:01.282Z,7.07
2022-11-02T03:55:37.885Z,7.06
2022-11-02T03:58:12.987Z,7.05
2022-11-02T04:00:54.911Z,7.05
2022-11-02T04:03:28.111Z,7.05
2022-11-02T04:06:00.598Z,7.04
2022-11-02T04:08:37.925Z,7.05
2022-11-02T04:11:30.705Z,7.10
2022-11-02T04:14:23.126Z,7.13
2022-11-02T04:16:57.373Z,7.17
2022-11-02T04:19:31.368Z,7.24
2022-11-02T04:22:23.627Z,7.29
2022-11-02T04:25:15.848Z,7.35
2022-11-02T04:27:52.805Z,7.37
2022-11-02T04:30:27.385Z,7.40
2022-11-02T04:33:18.101Z,7.41
2022-11-02T07:58:51.988Z,20.48
2022-11-02T08:01:24.711Z,20.41
2022-11-02T08:03:57.146Z,20.38
2022-11-02T08:06:29.978Z,20.38
2022-11-02T08:09:03.340Z,20.46
2022-11-02T08:11:35.816Z,20.51
2022-11-02T08:14:09.190Z,20.37
2022-11-02T08:16:41.767Z,20.38
2022-11-02T08:19:15.265Z,20.43
2022-11-02T08:21:48.314Z,20.55
2022-11-02T08:24:20.835Z,20.71
2022-11-02T08:26:54.901Z,20.91
2022-11-02T08:29:27.736Z,21.08
2022-11-02T08:32:01.187Z,21.15
2022-11-02T08:34:33.807Z,21.27
2022-11-02T08:37:09.002Z,21.38
2022-11-02T08:39:42.015Z,21.47
2022-11-02T08:42:14.593Z,21.69
2022-11-02T08:44:48.076Z,21.92
2022-11-02T08:47:20.690Z,22.03
2022-11-02T08:49:53.321Z,22.03
2022-11-02T08:52:25.644Z,22.04
2022-11-02T08:54:58.904Z,22.14
2022-11-02T08:57:31.634Z,22.24
2022-11-02T09:00:04.920Z,22.36
2022-11-02T09:02:37.904Z,22.38
2022-11-02T09:05:32.590Z,22.47
2022-11-02T09:08:08.717Z,22.62
2022-11-02T09:10:41.899Z,22.68
2022-11-02T09:13:16.130Z,22.70
2022-11-02T09:15:54.549Z,22.75
2022-11-02T09:18:27.466Z,22.76
2022-11-02T09:21:08.299Z,22.75
2022-11-02T09:23:41.293Z,22.80
2022-11-02T09:26:13.799Z,22.78
2022-11-02T09:28:46.747Z,22.75
2022-11-02T09:31:19.147Z,22.78
2022-11-02T09:33:52.219Z,22.79
2022-11-02T09:36:24.938Z,22.80
2022-11-02T09:38:57.680Z,22.91
2022-11-02T09:41:46.675Z,22.93
2022-11-02T09:45:01.745Z,22.85
2022-11-02T09:48:15.318Z,22.75
2022-11-02T09:50:13.076Z,22.63
2022-11-02T09:52:45.804Z,22.48
2022-11-02T09:55:22.778Z,22.51
2022-11-02T09:58:08.926Z,22.59
2022-11-02T10:00:42.963Z,22.67
2022-11-02T10:03:43.690Z,22.85
2022-11-02T10:06:20.573Z,23.00
2022-11-02T10:09:15.576Z,23.00
2022-11-02T10:15:00.485Z,22.93
2022-11-02T10:17:37.378Z,22.91
2022-11-02T10:20:35.853Z,22.93
2022-11-02T10:23:10.325Z,22.94
2022-11-02T10:25:43.041Z,22.98
2022-11-02T10:28:22.308Z,22.72
2022-11-02T10:30:55.750Z,22.23
2022-11-02T10:33:31.313Z,21.79
2022-11-02T10:36:18.239Z,21.66
2022-11-02T10:39:23.123Z,21.56
2022-11-02T10:42:44.221Z,21.34
2022-11-02T10:45:56.247Z,20.96
2022-11-02T10:48:39.274Z,20.35
2022-11-02T10:51:15.874Z,20.04
2022-11-02T10:53:50.879Z,20.01
2022-11-02T10:56:34.815Z,20.09
2022-11-02T10:59:22.937Z,20.19
2022-11-02T11:02:20.367Z,20.28
2022-11-02T11:04:52.757Z,20.47
2022-11-02T11:07:28.086Z,20.60
2022-11-02T11:10:01.159Z,20.67
2022-11-02T11:12:42.104Z,20.69
2022-11-02T11:15:48.862Z,20.76
2022-11-02T11:21:02.815Z,20.66
2022-11-02T11:23:36.295Z,20.53
2022-11-02T11:26:12.559Z,20.47
2022-11-02T11:28:58.055Z,20.44
2022-11-02T11:31:31.394Z,20.53
2022-11-02T11:34:03.936Z,20.57
2022-11-02T11:36:38.672Z,20.46
2022-11-02T11:39:27.806Z,20.05
2022-11-02T11:42:02.808Z,19.48
2022-11-02T11:44:36.062Z,18.87
2022-11-02T11:47:10.008Z,18.38
2022-11-02T11:50:22.465Z,17.90
2022-11-02T11:52:33.897Z,17.50
2022-11-02T11:55:25.525Z,17.19
2022-11-02T11:58:19.854Z,16.91
2022-11-02T12:01:17.933Z,16.55
2022-11-02T12:04:00.214Z,16.36
2022-11-02T12:07:10.409Z,16.18
2022-11-02T12:10:25.217Z,16.03
2022-11-02T12:13:30.459Z,15.89
2022-11-02T12:16:25.571Z,15.75
2022-11-02T12:19:09.000Z,15.64
2022-11-02T12:22:18.640Z,15.56
2022-11-02T12:25:30.535Z,15.51
2022-11-02T12:28:34.099Z,15.44
2022-11-02T12:35:28.412Z,15.26
2022-11-02T12:38:27.216Z,15.19
2022-11-02T12:41:06.004Z,15.21
2022-11-02T12:43:51.960Z,15.19
2022-11-02T12:46:49.377Z,15.14
2022-11-02T12:49:48.148Z,15.09
2022-11-02T12:53:00.221Z,15.03
2022-11-02T12:55:41.017Z,15.00
2022-11-02T12:58:18.960Z,14.98
2022-11-02T13:00:57.746Z,14.88
2022-11-02T13:03:59.099Z,14.82
2022-11-02T13:06:47.649Z,14.79
2022-11-02T13:09:36.344Z,14.73
2022-11-02T13:12:14.806Z,14.68
2022-11-02T13:14:50.091Z,14.62
2022-11-02T16:52:33.714Z,12.33
2022-11-02T16:58:28.587Z,12.23
2022-11-02T17:01:06.756Z,12.20
2022-11-02T17:03:39.923Z,12.18
2022-11-02T17:06:12.664Z,12.16
2022-11-02T17:08:46.220Z,12.15
2022-11-02T17:11:19.153Z,12.11
2022-11-02T17:13:55.582Z,12.10
2022-11-02T17:16:29.167Z,12.08
2022-11-02T17:19:06.432Z,12.09
2022-11-02T17:21:39.353Z,12.05
2022-11-02T17:24:33.314Z,12.04
2022-11-02T17:27:27.085Z,12.03
2022-11-02T17:30:00.135Z,12.04
2022-11-02T17:32:32.862Z,12.02
2022-11-02T17:35:07.458Z,12.05
2022-11-02T17:37:39.960Z,12.07
2022-11-02T17:40:13.807Z,12.05
2022-11-02T17:42:59.318Z,12.05
2022-11-02T17:45:37.647Z,12.05
2022-11-02T17:48:11.336Z,12.03
2022-11-02T17:50:43.752Z,11.99
2022-11-02T17:53:16.499Z,12.00
2022-11-02T17:55:49.268Z,11.97
2022-11-02T17:58:21.907Z,11.93
2022-11-02T18:00:55.732Z,11.90
2022-11-02T18:03:31.408Z,11.86
2022-11-02T18:06:03.082Z,11.85
2022-11-02T18:08:37.476Z,11.83
2022-11-02T18:11:11.214Z,11.82
2022-11-02T18:13:44.270Z,11.81
2022-11-02T18:16:16.963Z,11.80
2022-11-02T18:18:49.618Z,11.77
2022-11-02T18:21:23.575Z,11.76
2022-11-02T18:23:56.050Z,11.78
2022-11-02T18:26:28.776Z,11.79
2022-11-02T18:29:02.012Z,11.80
2022-11-02T18:31:37.454Z,11.81
2022-11-02T18:34:12.626Z,11.82
2022-11-02T18:36:45.904Z,11.83
2022-11-02T18:39:18.504Z,11.81
2022-11-02T18:41:51.842Z,11.80
2022-11-02T18:44:24.727Z,11.79
2022-11-02T18:46:59.453Z,11.75
2022-11-02T18:49:31.804Z,11.73
2022-11-02T18:52:04.241Z,11.72
2022-11-02T18:54:37.998Z,11.68
2022-11-02T18:57:10.592Z,11.68
2022-11-02T18:59:43.198Z,11.69
2022-11-02T19:02:15.790Z,11.71
2022-11-02T19:04:48.527Z,11.69
2022-11-02T19:07:39.329Z,11.69
2022-11-02T19:10:12.442Z,11.65
2022-11-02T19:12:46.551Z,11.63
2022-11-02T19:15:18.977Z,11.64
2022-11-02T19:17:51.923Z,11.68
2022-11-02T19:20:51.905Z,11.68
2022-11-02T19:23:24.385Z,11.68
2022-11-02T19:25:57.163Z,11.65
2022-11-02T19:28:30.904Z,11.65
2022-11-02T19:31:08.401Z,11.69
2022-11-02T19:33:40.869Z,11.70
2022-11-02T19:36:14.130Z,11.68
2022-11-02T19:38:46.559Z,11.68
2022-11-02T19:41:19.604Z,11.67
2022-11-02T19:43:52.102Z,11.68
2022-11-02T19:46:25.428Z,11.66
2022-11-02T19:49:01.087Z,11.64
2022-11-02T19:51:34.375Z,11.61
2022-11-02T19:54:07.405Z,11.61
2022-11-02T19:56:39.905Z,11.59
2022-11-02T19:59:12.817Z,11.56
2022-11-02T20:01:46.746Z,11.54
2022-11-02T20:04:19.492Z,11.50
2022-11-02T20:06:52.103Z,11.49
2022-11-02T20:09:24.909Z,11.45
2022-11-02T20:11:57.383Z,11.38
2022-11-02T20:14:30.447Z,11.34
2022-11-02T20:17:29.565Z,11.30
2022-11-02T20:19:38.295Z,11.29
2022-11-02T20:22:10.977Z,11.25
2022-11-02T20:24:43.420Z,11.22
2022-11-02T20:27:16.026Z,11.21
2022-11-02T20:29:48.609Z,11.19
2022-11-02T20:32:22.453Z,11.14
2022-11-02T20:34:54.871Z,11.11
2022-11-02T20:37:27.670Z,11.09
2022-11-02T20:40:00.782Z,11.08
2022-11-02T20:42:33.853Z,11.04
2022-11-02T20:45:08.782Z,11.02
2022-11-02T20:47:41.832Z,10.95
2022-11-02T20:50:16.883Z,10.93
2022-11-02T20:52:49.672Z,10.92
2022-11-02T20:55:22.896Z,10.89
2022-11-02T20:57:55.486Z,10.87
2022-11-02T21:00:27.969Z,10.86
2022-11-02T21:03:00.571Z,10.87
2022-11-02T21:05:34.113Z,10.83
2022-11-02T21:08:07.614Z,10.77
2022-11-02T21:10:40.608Z,10.74
2022-11-02T21:13:31.389Z,10.71
2022-11-02T21:16:05.231Z,10.70
2022-11-02T21:18:37.717Z,10.68
2022-11-02T21:21:15.775Z,10.68
2022-11-02T21:23:48.310Z,10.63
2022-11-02T21:26:20.888Z,10.62
2022-11-02T21:28:53.463Z,10.61
2022-11-02T21:31:26.352Z,10.58
2022-11-02T21:33:58.983Z,10.56
2022-11-02T21:36:31.990Z,10.55
2022-11-02T21:39:04.773Z,10.55
2022-11-02T21:41:39.058Z,10.57
2022-11-02T21:44:12.246Z,10.59
2022-11-02T21:46:45.882Z,10.59
2022-11-02T21:49:18.826Z,10.59
2022-11-02T21:51:51.364Z,10.61
2022-11-02T21:54:24.162Z,10.64
2022-11-02T21:56:58.116Z,10.65
2022-11-02T21:59:30.838Z,10.64
2022-11-02T22:02:03.431Z,10.65
2022-11-02T22:04:35.995Z,10.67
2022-11-02T22:07:08.404Z,10.70
2022-11-02T22:09:41.112Z,10.72
2022-11-02T22:12:31.752Z,10.75
2022-11-02T22:15:05.797Z,10.77
2022-11-02T22:17:54.181Z,10.76
2022-11-02T22:20:13.845Z,10.73
2022-11-02T22:22:47.347Z,10.69
2022-11-02T22:25:20.015Z,10.65
2022-11-02T22:27:53.850Z,10.63
2022-11-02T22:30:26.341Z,10.62
2022-11-02T22:32:59.233Z,10.60
2022-11-02T22:35:31.859Z,10.58
2022-11-02T22:38:22.574Z,10.58
2022-11-02T22:41:01.314Z,10.56
2022-11-02T22:43:34.067Z,10.60
2022-11-02T22:46:08.127Z,10.64
2022-11-02T22:48:40.484Z,10.63
2022-11-02T22:51:14.305Z,10.60
2022-11-02T22:53:47.067Z,10.59
2022-11-02T22:56:21.420Z,10.55
2022-11-02T22:58:54.006Z,10.54
2022-11-02T23:01:28.433Z,10.55
2022-11-02T23:04:01.443Z,10.55
2022-11-02T23:06:34.816Z,10.54
2022-11-02T23:09:07.329Z,10.52
2022-11-02T23:11:40.702Z,10.53
2022-11-02T23:14:17.843Z,10.52
2022-11-02T23:16:51.941Z,10.54
2022-11-02T23:19:28.616Z,10.56
2022-11-02T23:22:31.506Z,10.57
2022-11-02T23:25:18.478Z,10.54
2022-11-02T23:28:16.297Z,10.54
2022-11-02T23:31:08.165Z,10.50
2022-11-02T23:33:41.736Z,10.47
2022-11-02T23:36:16.034Z,10.47
2022-11-02T23:39:07.724Z,10.45
2022-11-02T23:41:42.235Z,10.46
2022-11-02T23:44:14.878Z,10.45
2022-11-02T23:46:49.328Z,10.44
2022-11-02T23:49:21.625Z,10.43
2022-11-02T23:52:12.224Z,10.45
2022-11-02T23:55:02.564Z,10.48
2022-11-02T23:57:35.243Z,10.44
